sensor_id;sensor_type;location;lat;lon;timestamp;pressure;altitude;pressure_sealevel;temperature;humidity
56272;BME280;42177;48.914;18.160;2022-07-05T00:02:27;985.8;;;23.9;71
56272;BME280;42177;48.914;18.160;2022-07-05T00:07:27;985.7;;;24.1;72.5
56272;BME280;42177;48.914;18.160;2022-07-05T00:12:29;985.7;;;24.1;72.5
56272;BME280;42177;48.914;18.160;2022-07-05T00:17:27;985.7;;;23.7;73.6
56272;BME280;42177;48.914;18.160;2022-07-05T00:22:27;985.7;;;23.7;73.6
56272;BME280;42177;48.914;18.160;2022-07-05T00:27:27;985.5;;;23.6;74.7
56272;BME280;42177;48.914;18.160;2022-07-05T00:32:27;985.5;;;23.6;74.7
56272;BME280;42177;48.914;18.160;2022-07-05T00:37:27;985.4;;;23.5;75.3
56272;BME280;42177;48.914;18.160;2022-07-05T00:42:27;985.4;;;23.5;75.3
56272;BME280;42177;48.914;18.160;2022-07-05T00:47:27;985.2;;;23.3;77
56272;BME280;42177;48.914;18.160;2022-07-05T00:52:28;985.2;;;23.3;77
56272;BME280;42177;48.914;18.160;2022-07-05T00:57:27;985.1;;;23.3;74.5
56272;BME280;42177;48.914;18.160;2022-07-05T01:02:27;985.1;;;23.3;74.5
56272;BME280;42177;48.914;18.160;2022-07-05T01:07:28;985.1;;;23.4;72.8
56272;BME280;42177;48.914;18.160;2022-07-05T01:12:27;985.1;;;23.4;72.8
56272;BME280;42177;48.914;18.160;2022-07-05T01:17:27;985.1;;;23.3;75.1
56272;BME280;42177;48.914;18.160;2022-07-05T01:27:27;985.1;;;23.3;77.4
56272;BME280;42177;48.914;18.160;2022-07-05T01:32:27;985.1;;;23.3;77.4
56272;BME280;42177;48.914;18.160;2022-07-05T01:37:28;985.2;;;23.1;78
56272;BME280;42177;48.914;18.160;2022-07-05T01:42:27;985.2;;;23.1;78
56272;BME280;42177;48.914;18.160;2022-07-05T01:47:27;985.1;;;23.5;75.9
56272;BME280;42177;48.914;18.160;2022-07-05T01:52:27;985.1;;;23.5;75.9
56272;BME280;42177;48.914;18.160;2022-07-05T01:57:27;985.1;;;23.6;73.5
56272;BME280;42177;48.914;18.160;2022-07-05T02:02:27;985.1;;;23.6;73.5
56272;BME280;42177;48.914;18.160;2022-07-05T02:07:27;985.1;;;23.2;73.3
56272;BME280;42177;48.914;18.160;2022-07-05T02:12:27;985.1;;;23.2;73.3
56272;BME280;42177;48.914;18.160;2022-07-05T02:17:27;985.3;;;23;73
56272;BME280;42177;48.914;18.160;2022-07-05T02:22:27;985.3;;;23;73
56272;BME280;42177;48.914;18.160;2022-07-05T02:27:27;985.3;;;22.9;72.8
56272;BME280;42177;48.914;18.160;2022-07-05T02:32:27;985.3;;;22.9;72.8
56272;BME280;42177;48.914;18.160;2022-07-05T02:37:27;985.3;;;23.1;72.7
56272;BME280;42177;48.914;18.160;2022-07-05T02:42:27;985.3;;;23.1;72.7
56272;BME280;42177;48.914;18.160;2022-07-05T02:47:29;985.2;;;23.1;76.5
56272;BME280;42177;48.914;18.160;2022-07-05T02:52:27;985.2;;;23.1;76.5
56272;BME280;42177;48.914;18.160;2022-07-05T02:57:27;985.1;;;22.9;77.5
56272;BME280;42177;48.914;18.160;2022-07-05T03:02:27;985.1;;;22.9;77.5
56272;BME280;42177;48.914;18.160;2022-07-05T03:07:27;985;;;22.8;80.7
56272;BME280;42177;48.914;18.160;2022-07-05T03:12:27;985;;;22.8;80.7
56272;BME280;42177;48.914;18.160;2022-07-05T03:17:27;985.1;;;22.3;85.1
56272;BME280;42177;48.914;18.160;2022-07-05T03:22:27;985.1;;;22.3;85.1
56272;BME280;42177;48.914;18.160;2022-07-05T03:27:27;985;;;22.5;83
56272;BME280;42177;48.914;18.160;2022-07-05T03:32:27;985;;;22.5;83
56272;BME280;42177;48.914;18.160;2022-07-05T03:37:27;985.1;;;22.4;85.5
56272;BME280;42177;48.914;18.160;2022-07-05T03:42:27;985.1;;;22.4;85.5
56272;BME280;42177;48.914;18.160;2022-07-05T03:47:27;985.2;;;22.5;89.6
56272;BME280;42177;48.914;18.160;2022-07-05T03:52:27;985.2;;;22.5;89.6
56272;BME280;42177;48.914;18.160;2022-07-05T03:57:27;985.1;;;22.7;89.9
56272;BME280;42177;48.914;18.160;2022-07-05T04:02:27;985.1;;;22.7;89.9
56272;BME280;42177;48.914;18.160;2022-07-05T04:07:27;985.2;;;22.6;89.5
56272;BME280;42177;48.914;18.160;2022-07-05T04:12:27;985.2;;;22.6;89.5
56272;BME280;42177;48.914;18.160;2022-07-05T04:17:27;985.2;;;22.6;90.7
56272;BME280;42177;48.914;18.160;2022-07-05T04:22:27;985.2;;;22.6;90.7
56272;BME280;42177;48.914;18.160;2022-07-05T04:27:27;985.2;;;22.4;92.7
56272;BME280;42177;48.914;18.160;2022-07-05T04:32:27;985.2;;;22.4;92.7
56272;BME280;42177;48.914;18.160;2022-07-05T04:37:27;985.2;;;22.8;90.6
56272;BME280;42177;48.914;18.160;2022-07-05T04:42:27;985.2;;;22.8;90.6
56272;BME280;42177;48.914;18.160;2022-07-05T04:47:28;985.2;;;22.4;93.7
56272;BME280;42177;48.914;18.160;2022-07-05T04:52:27;985.2;;;22.4;93.7
56272;BME280;42177;48.914;18.160;2022-07-05T04:57:27;985.1;;;22.6;92.2
56272;BME280;42177;48.914;18.160;2022-07-05T05:02:27;985.1;;;22.6;92.2
56272;BME280;42177;48.914;18.160;2022-07-05T05:07:28;985.2;;;22.4;95.3
56272;BME280;42177;48.914;18.160;2022-07-05T05:12:27;985.2;;;22.4;95.3
56272;BME280;42177;48.914;18.160;2022-07-05T05:17:33;985.2;;;22.5;93.7
56272;BME280;42177;48.914;18.160;2022-07-05T05:22:27;985.2;;;22.5;93.7
56272;BME280;42177;48.914;18.160;2022-07-05T05:27:27;985.2;;;22.6;92.4
56272;BME280;42177;48.914;18.160;2022-07-05T05:32:27;985.2;;;22.6;92.4
56272;BME280;42177;48.914;18.160;2022-07-05T05:37:27;985.2;;;22.2;91
56272;BME280;42177;48.914;18.160;2022-07-05T05:42:27;985.2;;;22.2;91
56272;BME280;42177;48.914;18.160;2022-07-05T05:47:28;985.4;;;22.1;88.5
56272;BME280;42177;48.914;18.160;2022-07-05T05:52:27;985.4;;;22.1;88.5
56272;BME280;42177;48.914;18.160;2022-07-05T05:57:28;985.3;;;22.1;87.5
56272;BME280;42177;48.914;18.160;2022-07-05T06:02:28;985.3;;;22.1;87.5
56272;BME280;42177;48.914;18.160;2022-07-05T06:07:27;985.4;;;22.3;86.4
56272;BME280;42177;48.914;18.160;2022-07-05T06:12:27;985.4;;;22.3;86.4
56272;BME280;42177;48.914;18.160;2022-07-05T06:17:28;985.5;;;22.3;86.5
56272;BME280;42177;48.914;18.160;2022-07-05T06:22:28;985.5;;;22.3;86.5
56272;BME280;42177;48.914;18.160;2022-07-05T06:27:27;985.5;;;22.4;86
56272;BME280;42177;48.914;18.160;2022-07-05T06:32:28;985.5;;;22.4;86
56272;BME280;42177;48.914;18.160;2022-07-05T06:37:28;985.7;;;22.5;85.1
56272;BME280;42177;48.914;18.160;2022-07-05T06:42:28;985.7;;;22.5;85.1
56272;BME280;42177;48.914;18.160;2022-07-05T06:47:28;985.8;;;22.8;83.9
56272;BME280;42177;48.914;18.160;2022-07-05T06:52:28;985.8;;;22.8;83.9
56272;BME280;42177;48.914;18.160;2022-07-05T06:57:27;985.9;;;22.6;83.3
56272;BME280;42177;48.914;18.160;2022-07-05T07:02:28;985.9;;;22.6;83.3
56272;BME280;42177;48.914;18.160;2022-07-05T07:07:28;985.9;;;22.7;83.4
56272;BME280;42177;48.914;18.160;2022-07-05T07:12:28;985.9;;;22.7;83.4
56272;BME280;42177;48.914;18.160;2022-07-05T07:17:27;986;;;22.7;84.5
56272;BME280;42177;48.914;18.160;2022-07-05T07:22:28;986;;;22.7;84.5
56272;BME280;42177;48.914;18.160;2022-07-05T07:27:28;986.1;;;22.8;84.6
56272;BME280;42177;48.914;18.160;2022-07-05T07:32:28;986.1;;;22.8;84.6
56272;BME280;42177;48.914;18.160;2022-07-05T07:37:28;986.2;;;22.9;83.8
56272;BME280;42177;48.914;18.160;2022-07-05T07:42:28;986.2;;;22.9;83.8
56272;BME280;42177;48.914;18.160;2022-07-05T07:47:27;986.2;;;22.9;85.1
56272;BME280;42177;48.914;18.160;2022-07-05T07:52:28;986.2;;;22.9;85.1
56272;BME280;42177;48.914;18.160;2022-07-05T07:57:28;986.2;;;23.1;86.5
56272;BME280;42177;48.914;18.160;2022-07-05T08:02:28;986.2;;;23.1;86.5
56272;BME280;42177;48.914;18.160;2022-07-05T08:07:28;986.1;;;23.1;84.6
56272;BME280;42177;48.914;18.160;2022-07-05T08:12:28;986.1;;;23.1;84.6
56272;BME280;42177;48.914;18.160;2022-07-05T08:17:28;986;;;23;86.6
56272;BME280;42177;48.914;18.160;2022-07-05T08:22:28;986;;;23;86.6
56272;BME280;42177;48.914;18.160;2022-07-05T08:27:28;986.1;;;22.9;89.3
56272;BME280;42177;48.914;18.160;2022-07-05T08:32:28;986.1;;;22.9;89.3
56272;BME280;42177;48.914;18.160;2022-07-05T08:37:27;986.2;;;22.8;90.5
56272;BME280;42177;48.914;18.160;2022-07-05T08:42:28;986.2;;;22.8;90.5
56272;BME280;42177;48.914;18.160;2022-07-05T08:47:28;986.2;;;22.6;92.3
56272;BME280;42177;48.914;18.160;2022-07-05T08:52:28;986.2;;;22.6;92.3
56272;BME280;42177;48.914;18.160;2022-07-05T08:57:28;986.1;;;22.7;96.6
56272;BME280;42177;48.914;18.160;2022-07-05T09:02:28;986.1;;;22.7;96.6
56272;BME280;42177;48.914;18.160;2022-07-05T09:07:28;986.2;;;22.5;98.6
56272;BME280;42177;48.914;18.160;2022-07-05T09:12:28;986.2;;;22.5;98.6
56272;BME280;42177;48.914;18.160;2022-07-05T09:17:28;986.2;;;22.5;100
56272;BME280;42177;48.914;18.160;2022-07-05T09:22:28;986.2;;;22.5;100
56272;BME280;42177;48.914;18.160;2022-07-05T09:27:28;986.4;;;22.7;100
56272;BME280;42177;48.914;18.160;2022-07-05T09:32:28;986.4;;;22.7;100
56272;BME280;42177;48.914;18.160;2022-07-05T09:37:41;986.2;;;22.8;100
56272;BME280;42177;48.914;18.160;2022-07-05T09:42:28;986.2;;;22.8;100
56272;BME280;42177;48.914;18.160;2022-07-05T09:47:28;986.4;;;22.8;100
56272;BME280;42177;48.914;18.160;2022-07-05T09:52:28;986.4;;;22.8;100
56272;BME280;42177;48.914;18.160;2022-07-05T09:57:28;986.5;;;22.7;100
56272;BME280;42177;48.914;18.160;2022-07-05T10:02:35;986.5;;;22.7;100
56272;BME280;42177;48.914;18.160;2022-07-05T10:07:28;986.5;;;22.8;99
56272;BME280;42177;48.914;18.160;2022-07-05T10:12:28;986.5;;;22.8;99
56272;BME280;42177;48.914;18.160;2022-07-05T10:17:28;986.5;;;23;100
56272;BME280;42177;48.914;18.160;2022-07-05T10:22:28;986.5;;;23;100
56272;BME280;42177;48.914;18.160;2022-07-05T10:27:28;986.2;;;22.7;98.3
56272;BME280;42177;48.914;18.160;2022-07-05T10:32:28;986.2;;;22.7;98.3
56272;BME280;42177;48.914;18.160;2022-07-05T10:37:28;986.2;;;22.6;100
56272;BME280;42177;48.914;18.160;2022-07-05T10:42:33;986.2;;;22.6;100
56272;BME280;42177;48.914;18.160;2022-07-05T10:47:28;986.3;;;22.7;100
56272;BME280;42177;48.914;18.160;2022-07-05T10:52:28;986.3;;;22.7;100
56272;BME280;42177;48.914;18.160;2022-07-05T10:57:28;986.2;;;23;100
56272;BME280;42177;48.914;18.160;2022-07-05T11:02:28;986.2;;;23;100
56272;BME280;42177;48.914;18.160;2022-07-05T11:08:00;986;;;22.9;100
56272;BME280;42177;48.914;18.160;2022-07-05T11:12:35;986;;;22.9;100
56272;BME280;42177;48.914;18.160;2022-07-05T11:17:28;986;;;22.8;99.5
56272;BME280;42177;48.914;18.160;2022-07-05T11:22:28;986;;;22.8;99.5
56272;BME280;42177;48.914;18.160;2022-07-05T11:27:28;985.9;;;23;98.6
56272;BME280;42177;48.914;18.160;2022-07-05T11:32:36;985.9;;;23;98.6
56272;BME280;42177;48.914;18.160;2022-07-05T11:37:28;985.9;;;22.8;99.4
56272;BME280;42177;48.914;18.160;2022-07-05T11:42:28;985.9;;;22.8;99.4
56272;BME280;42177;48.914;18.160;2022-07-05T11:47:28;985.8;;;22.8;97.8
56272;BME280;42177;48.914;18.160;2022-07-05T11:52:28;985.8;;;22.8;97.8
56272;BME280;42177;48.914;18.160;2022-07-05T11:57:28;985.9;;;23;98.2
56272;BME280;42177;48.914;18.160;2022-07-05T12:02:28;985.9;;;23;98.2
56272;BME280;42177;48.914;18.160;2022-07-05T12:07:28;985.8;;;22.9;100
56272;BME280;42177;48.914;18.160;2022-07-05T12:12:29;985.8;;;22.9;100
56272;BME280;42177;48.914;18.160;2022-07-05T12:17:28;985.7;;;22.7;100
56272;BME280;42177;48.914;18.160;2022-07-05T12:22:29;985.7;;;22.7;100
56272;BME280;42177;48.914;18.160;2022-07-05T12:27:28;985.7;;;22.8;97.3
56272;BME280;42177;48.914;18.160;2022-07-05T12:32:28;985.7;;;22.8;97.3
56272;BME280;42177;48.914;18.160;2022-07-05T12:37:28;985.7;;;22.7;99.1
56272;BME280;42177;48.914;18.160;2022-07-05T12:42:29;985.7;;;22.7;99.1
56272;BME280;42177;48.914;18.160;2022-07-05T12:47:28;985.7;;;22.5;100
56272;BME280;42177;48.914;18.160;2022-07-05T12:52:28;985.7;;;22.5;100
56272;BME280;42177;48.914;18.160;2022-07-05T12:57:28;985.6;;;22.4;100
56272;BME280;42177;48.914;18.160;2022-07-05T13:02:36;985.6;;;22.4;100
56272;BME280;42177;48.914;18.160;2022-07-05T13:07:28;985.6;;;22.6;100
56272;BME280;42177;48.914;18.160;2022-07-05T13:12:28;985.6;;;22.6;100
56272;BME280;42177;48.914;18.160;2022-07-05T13:17:28;985.6;;;22.7;100
56272;BME280;42177;48.914;18.160;2022-07-05T13:22:28;985.6;;;22.7;100
56272;BME280;42177;48.914;18.160;2022-07-05T13:27:28;985.4;;;22.5;100
56272;BME280;42177;48.914;18.160;2022-07-05T13:32:28;985.4;;;22.5;100
56272;BME280;42177;48.914;18.160;2022-07-05T13:37:28;985.3;;;22.4;100
56272;BME280;42177;48.914;18.160;2022-07-05T13:42:28;985.3;;;22.4;100
56272;BME280;42177;48.914;18.160;2022-07-05T13:47:28;985.4;;;22.3;100
56272;BME280;42177;48.914;18.160;2022-07-05T13:52:28;985.4;;;22.3;100
56272;BME280;42177;48.914;18.160;2022-07-05T13:57:28;985.4;;;22.3;100
56272;BME280;42177;48.914;18.160;2022-07-05T14:02:28;985.4;;;22.3;100
56272;BME280;42177;48.914;18.160;2022-07-05T14:07:28;985.4;;;22.5;100
56272;BME280;42177;48.914;18.160;2022-07-05T14:12:28;985.4;;;22.5;100
56272;BME280;42177;48.914;18.160;2022-07-05T14:17:28;985.3;;;22.2;100
56272;BME280;42177;48.914;18.160;2022-07-05T14:22:28;985.3;;;22.2;100
56272;BME280;42177;48.914;18.160;2022-07-05T14:27:28;985.3;;;22;100
56272;BME280;42177;48.914;18.160;2022-07-05T14:32:28;985.3;;;22;100
56272;BME280;42177;48.914;18.160;2022-07-05T14:37:28;985.3;;;22.3;100
56272;BME280;42177;48.914;18.160;2022-07-05T14:47:28;985.2;;;21.9;100
56272;BME280;42177;48.914;18.160;2022-07-05T14:57:28;985.3;;;21.7;100
56272;BME280;42177;48.914;18.160;2022-07-05T15:02:28;985.3;;;21.7;100
56272;BME280;42177;48.914;18.160;2022-07-05T15:07:30;985.3;;;21.6;100
56272;BME280;42177;48.914;18.160;2022-07-05T15:12:30;985.3;;;21.6;100
56272;BME280;42177;48.914;18.160;2022-07-05T15:17:28;985.3;;;21.7;100
56272;BME280;42177;48.914;18.160;2022-07-05T15:22:28;985.3;;;21.7;100
56272;BME280;42177;48.914;18.160;2022-07-05T15:27:28;985.3;;;21.6;100
56272;BME280;42177;48.914;18.160;2022-07-05T15:37:28;985.2;;;21.7;100
56272;BME280;42177;48.914;18.160;2022-07-05T15:42:28;985.2;;;21.7;100
56272;BME280;42177;48.914;18.160;2022-07-05T15:47:28;985.1;;;21.6;100
56272;BME280;42177;48.914;18.160;2022-07-05T15:57:32;984.9;;;21.5;100
56272;BME280;42177;48.914;18.160;2022-07-05T16:02:32;984.9;;;21.5;100
56272;BME280;42177;48.914;18.160;2022-07-05T16:07:28;984.9;;;21.7;100
56272;BME280;42177;48.914;18.160;2022-07-05T16:12:28;984.9;;;21.7;100
56272;BME280;42177;48.914;18.160;2022-07-05T16:17:28;984.9;;;21.6;100
56272;BME280;42177;48.914;18.160;2022-07-05T16:22:28;984.9;;;21.6;100
56272;BME280;42177;48.914;18.160;2022-07-05T16:27:28;984.9;;;21.1;100
56272;BME280;42177;48.914;18.160;2022-07-05T16:32:28;984.9;;;21.1;100
56272;BME280;42177;48.914;18.160;2022-07-05T16:37:28;985;;;21.1;100
56272;BME280;42177;48.914;18.160;2022-07-05T16:42:28;985;;;21.1;100
56272;BME280;42177;48.914;18.160;2022-07-05T16:47:28;985;;;22.1;100
56272;BME280;42177;48.914;18.160;2022-07-05T16:52:28;985;;;22.1;100
56272;BME280;42177;48.914;18.160;2022-07-05T16:57:28;985;;;21.6;99.4
56272;BME280;42177;48.914;18.160;2022-07-05T17:02:28;985;;;21.6;99.4
56272;BME280;42177;48.914;18.160;2022-07-05T17:07:28;985.1;;;21;100
56272;BME280;42177;48.914;18.160;2022-07-05T17:12:28;985.1;;;21;100
56272;BME280;42177;48.914;18.160;2022-07-05T17:17:28;985.1;;;20.7;100
56272;BME280;42177;48.914;18.160;2022-07-05T17:22:28;985.1;;;20.7;100
56272;BME280;42177;48.914;18.160;2022-07-05T17:27:28;985.3;;;20.6;100
56272;BME280;42177;48.914;18.160;2022-07-05T17:32:28;985.3;;;20.6;100
56272;BME280;42177;48.914;18.160;2022-07-05T17:37:28;985.3;;;20.7;100
56272;BME280;42177;48.914;18.160;2022-07-05T17:42:28;985.3;;;20.7;100
56272;BME280;42177;48.914;18.160;2022-07-05T17:47:29;985.3;;;20.9;100
56272;BME280;42177;48.914;18.160;2022-07-05T17:52:28;985.3;;;20.9;100
56272;BME280;42177;48.914;18.160;2022-07-05T17:57:28;985.4;;;21.1;97.2
56272;BME280;42177;48.914;18.160;2022-07-05T18:02:28;985.4;;;21.1;97.2
56272;BME280;42177;48.914;18.160;2022-07-05T18:07:28;985.4;;;21;94.6
56272;BME280;42177;48.914;18.160;2022-07-05T18:12:28;985.4;;;21;94.6
56272;BME280;42177;48.914;18.160;2022-07-05T18:17:28;985.5;;;20.4;98.5
56272;BME280;42177;48.914;18.160;2022-07-05T18:22:28;985.5;;;20.4;98.5
56272;BME280;42177;48.914;18.160;2022-07-05T18:27:28;985.7;;;20.4;99.3
56272;BME280;42177;48.914;18.160;2022-07-05T18:32:28;985.7;;;20.4;99.3
56272;BME280;42177;48.914;18.160;2022-07-05T18:37:28;985.7;;;20.2;99.2
56272;BME280;42177;48.914;18.160;2022-07-05T18:42:28;985.7;;;20.2;99.2
56272;BME280;42177;48.914;18.160;2022-07-05T18:47:28;985.8;;;20.3;97.9
56272;BME280;42177;48.914;18.160;2022-07-05T18:52:28;985.8;;;20.3;97.9
56272;BME280;42177;48.914;18.160;2022-07-05T18:57:28;985.7;;;20.2;99.4
56272;BME280;42177;48.914;18.160;2022-07-05T19:02:28;985.7;;;20.2;99.4
56272;BME280;42177;48.914;18.160;2022-07-05T19:07:28;985.8;;;20;99.7
56272;BME280;42177;48.914;18.160;2022-07-05T19:12:28;985.8;;;20;99.7
56272;BME280;42177;48.914;18.160;2022-07-05T19:17:28;985.8;;;19.9;99.9
56272;BME280;42177;48.914;18.160;2022-07-05T19:22:28;985.8;;;19.9;99.9
56272;BME280;42177;48.914;18.160;2022-07-05T19:27:28;985.8;;;19.9;100
56272;BME280;42177;48.914;18.160;2022-07-05T19:32:28;985.8;;;19.9;100
56272;BME280;42177;48.914;18.160;2022-07-05T19:37:28;985.9;;;19.8;100
56272;BME280;42177;48.914;18.160;2022-07-05T19:42:28;985.9;;;19.8;100
56272;BME280;42177;48.914;18.160;2022-07-05T19:47:28;986;;;19.8;100
56272;BME280;42177;48.914;18.160;2022-07-05T19:52:28;986;;;19.8;100
56272;BME280;42177;48.914;18.160;2022-07-05T19:57:28;985.8;;;19.7;100
56272;BME280;42177;48.914;18.160;2022-07-05T20:02:28;985.8;;;19.7;100
56272;BME280;42177;48.914;18.160;2022-07-05T20:07:28;985.9;;;19.6;100
56272;BME280;42177;48.914;18.160;2022-07-05T20:12:28;985.9;;;19.6;100
56272;BME280;42177;48.914;18.160;2022-07-05T20:17:28;985.7;;;19.5;100
56272;BME280;42177;48.914;18.160;2022-07-05T20:22:28;985.7;;;19.5;100
56272;BME280;42177;48.914;18.160;2022-07-05T20:27:28;985.8;;;19.6;100
56272;BME280;42177;48.914;18.160;2022-07-05T20:32:28;985.8;;;19.6;100
56272;BME280;42177;48.914;18.160;2022-07-05T20:37:28;985.9;;;19.4;100
56272;BME280;42177;48.914;18.160;2022-07-05T20:42:28;985.9;;;19.4;100
56272;BME280;42177;48.914;18.160;2022-07-05T20:47:28;986;;;19.7;100
56272;BME280;42177;48.914;18.160;2022-07-05T20:52:28;986;;;19.7;100
56272;BME280;42177;48.914;18.160;2022-07-05T20:57:28;986.1;;;19.5;100
56272;BME280;42177;48.914;18.160;2022-07-05T21:02:28;986.1;;;19.5;100
56272;BME280;42177;48.914;18.160;2022-07-05T21:07:28;986.2;;;19.5;100
56272;BME280;42177;48.914;18.160;2022-07-05T21:12:28;986.2;;;19.5;100
56272;BME280;42177;48.914;18.160;2022-07-05T21:17:28;986;;;19.4;100
56272;BME280;42177;48.914;18.160;2022-07-05T21:22:28;986;;;19.4;100
56272;BME280;42177;48.914;18.160;2022-07-05T21:27:28;986.1;;;19.3;100
56272;BME280;42177;48.914;18.160;2022-07-05T21:32:28;986.1;;;19.3;100
56272;BME280;42177;48.914;18.160;2022-07-05T21:37:28;986;;;19.1;100
56272;BME280;42177;48.914;18.160;2022-07-05T21:42:28;986;;;19.1;100
56272;BME280;42177;48.914;18.160;2022-07-05T21:47:28;986;;;19.2;100
56272;BME280;42177;48.914;18.160;2022-07-05T21:52:28;986;;;19.2;100
56272;BME280;42177;48.914;18.160;2022-07-05T21:57:28;986.1;;;19;100
56272;BME280;42177;48.914;18.160;2022-07-05T22:02:28;986.1;;;19;100
56272;BME280;42177;48.914;18.160;2022-07-05T22:07:28;986.1;;;19.1;100
56272;BME280;42177;48.914;18.160;2022-07-05T22:12:28;986.1;;;19.1;100
56272;BME280;42177;48.914;18.160;2022-07-05T22:17:28;986.2;;;19.1;100
56272;BME280;42177;48.914;18.160;2022-07-05T22:22:28;986.2;;;19.1;100
56272;BME280;42177;48.914;18.160;2022-07-05T22:27:28;986.2;;;18.8;100
56272;BME280;42177;48.914;18.160;2022-07-05T22:32:28;986.2;;;18.8;100
56272;BME280;42177;48.914;18.160;2022-07-05T22:37:28;986.3;;;18.8;100
56272;BME280;42177;48.914;18.160;2022-07-05T22:42:28;986.3;;;18.8;100
56272;BME280;42177;48.914;18.160;2022-07-05T22:47:28;986.2;;;18.9;100
56272;BME280;42177;48.914;18.160;2022-07-05T22:52:28;986.2;;;18.9;100
56272;BME280;42177;48.914;18.160;2022-07-05T22:57:28;986.1;;;19.1;100
56272;BME280;42177;48.914;18.160;2022-07-05T23:02:28;986.1;;;19.1;100
56272;BME280;42177;48.914;18.160;2022-07-05T23:07:28;986.1;;;19.1;100
56272;BME280;42177;48.914;18.160;2022-07-05T23:12:28;986.1;;;19.1;100
56272;BME280;42177;48.914;18.160;2022-07-05T23:17:28;986.1;;;19.2;100
56272;BME280;42177;48.914;18.160;2022-07-05T23:22:28;986.1;;;19.2;100
56272;BME280;42177;48.914;18.160;2022-07-05T23:27:29;986.2;;;19.2;100
56272;BME280;42177;48.914;18.160;2022-07-05T23:32:28;986.2;;;19.2;100
56272;BME280;42177;48.914;18.160;2022-07-05T23:37:28;986.2;;;19;100
56272;BME280;42177;48.914;18.160;2022-07-05T23:42:28;986.2;;;19;100
56272;BME280;42177;48.914;18.160;2022-07-05T23:47:28;986.3;;;19.1;100
56272;BME280;42177;48.914;18.160;2022-07-05T23:52:28;986.3;;;19.1;100
56272;BME280;42177;48.914;18.160;2022-07-05T23:57:28;986.3;;;19.2;100
